Swift Ace — C6XB8 — position and weather

sailwx.info

Track history (hours):
 
Tides and Currents Weather Stations Pressure Air Temp Water Temp Dewpoint Dewpoint Depression Visibility Wind Speed Wind Dir Waves Ship Positions

Swift Ace

Last reported at 2015-Jul-26 09:26 UTC. Time now 2015-Aug-01 22:17 UTC.
Position S 36°09' E 174°58'.

Length 200 m; draft 8.6 m.

Type: Cargo ship. MMSI: 310968322.

Date/timePositionNaut miles runAvg speedWind from/ knotsBaromVisibWave heightAir tempDewpointWater temp
2015-Jul-26 09:26S 36°09' E 174°58'1314.7
2015-Jul-26 08:34S 36°21' E 174°58'1615.8
2015-Jul-26 07:34S 36°37' E 174°57'1212.4
2015-Jul-26 06:33S 36°48' E 174°49'3 3.2
2015-Jul-26 05:32S 36°50' E 174°46'0 0.0
2015-Jul-26 04:32S 36°50' E 174°46'0 0.0
2015-Jul-26 03:32S 36°50' E 174°46'0 0.0
2015-Jul-26 02:32S 36°50' E 174°46'0 0.0
2015-Jul-26 01:32S 36°50' E 174°46'0 0.0
2015-Jul-26 00:32S 36°50' E 174°46'0 0.0
2015-Jul-25 23:32S 36°50' E 174°46'0 0.0
2015-Jul-25 22:32S 36°50' E 174°46'0 0.0
2015-Jul-25 21:32S 36°50' E 174°46'0 0.0
2015-Jul-25 20:32S 36°50' E 174°46'0 0.0
2015-Jul-25 19:32S 36°50' E 174°46'0 0.0
2015-Jul-25 18:32S 36°50' E 174°46'3 2.8
2015-Jul-25 17:34S 36°50' E 174°50'10 9.9
2015-Jul-25 16:33S 36°40' E 174°54'1111.4
2015-Jul-25 15:33S 36°29' E 174°58'1413.7
2015-Jul-25 14:33S 36°16' E 174°58'  
2015-Jul-21 17:16S 27°03' E 154°03'1014.0
2015-Jul-21 16:33S 26°59' E 153°52'1414.0
2015-Jul-21 15:33S 26°54' E 153°38'1413.9
2015-Jul-21 14:33S 26°48' E 153°24'1313.2
2015-Jul-21 13:34S 26°42' E 153°11'1211.8
2015-Jul-21 12:34S 26°54' E 153°11'1616.0
2015-Jul-21 11:34S 27°07' E 153°21'1413.6
2015-Jul-21 10:34S 27°19' E 153°12'4 4.4
2015-Jul-21 09:33S 27°23' E 153°10'0 0.0
2015-Jul-21 08:33S 27°23' E 153°10'0 0.0
2015-Jul-21 07:33S 27°23' E 153°10'0 0.0
2015-Jul-21 06:33S 27°23' E 153°10'0 0.1
2015-Jul-21 05:33S 27°23' E 153°10'0 0.0
2015-Jul-21 04:21S 27°23' E 153°10'0 0.0
2015-Jul-21 03:33S 27°23' E 153°10'0 0.0
2015-Jul-21 02:33S 27°23' E 153°10'0 0.0
2015-Jul-21 01:30S 27°23' E 153°10'0 0.0
2015-Jul-21 00:33S 27°23' E 153°10'35 4.3
2015-Jul-20 16:32S 27°34' E 153°47'1616.3
2015-Jul-20 15:33S 27°50' E 153°47'28116.5
2015-Jul-19 22:32S 32°26' E 152°45'1717.6
2015-Jul-19 21:34S 32°41' E 152°35'1716.7
2015-Jul-19 20:34S 32°55' E 152°23'1716.8
2015-Jul-19 19:33S 33°09' E 152°12'8516.9
2015-Jul-19 14:33S 34°17' E 151°11'177 7.3
2015-Jul-18 14:13S 37°08' E 150°16'1014.3
2015-Jul-18 13:33S 37°18' E 150°12'1514.5
2015-Jul-18 12:32S 37°32' E 150°07'1414.4
2015-Jul-18 11:32S 37°42' E 149°55'1716.2
2015-Jul-18 10:29S 37°53' E 149°39'1414.6
2015-Jul-18 09:31S 38°02' E 149°24'1514.4
2015-Jul-18 08:29S 38°12' E 149°10'1414.7
2015-Jul-18 07:33S 38°20' E 148°57'7714.7
2015-Jul-18 02:21S 38°59' E 147°32'1214.8
2015-Jul-18 01:33S 39°03' E 147°18'1514.6
2015-Jul-18 00:33S 39°09' E 147°00'1615.9
2015-Jul-17 23:33S 39°14' E 146°41'1616.2
2015-Jul-17 22:33S 39°17' E 146°20'1717.2
2015-Jul-17 21:33S 39°12' E 145°59'162 5.2
2015-Jul-16 14:33S 38°48' E 142°33'1313.2
2015-Jul-16 13:33S 38°44' E 142°16'1313.5
2015-Jul-16 12:33S 38°41' E 141°60'1313.3
2015-Jul-16 11:33S 38°37' E 141°43'  
Track history (hours):
 
Tides and Currents Weather Stations Pressure Air Temp Water Temp Dewpoint Dewpoint Depression Visibility Wind Speed Wind Dir Waves Ship Positions

Swift Ace

Last reported at 2015-Jul-26 09:26 UTC. Time now 2015-Aug-01 22:17 UTC.
Position S 36°09' E 174°58'.

Length 200 m; draft 8.6 m.

Type: Cargo ship. MMSI: 310968322.

Date/timePositionNaut miles runAvg speedWind from/ knotsBaromVisibWave heightAir tempDewpointWater temp
2015-Jul-26 09:26S 36°09' E 174°58'1314.7
2015-Jul-26 08:34S 36°21' E 174°58'1615.8
2015-Jul-26 07:34S 36°37' E 174°57'1212.4
2015-Jul-26 06:33S 36°48' E 174°49'3 3.2
2015-Jul-26 05:32S 36°50' E 174°46'0 0.0
2015-Jul-26 04:32S 36°50' E 174°46'0 0.0
2015-Jul-26 03:32S 36°50' E 174°46'0 0.0
2015-Jul-26 02:32S 36°50' E 174°46'0 0.0
2015-Jul-26 01:32S 36°50' E 174°46'0 0.0
2015-Jul-26 00:32S 36°50' E 174°46'0 0.0
2015-Jul-25 23:32S 36°50' E 174°46'0 0.0
2015-Jul-25 22:32S 36°50' E 174°46'0 0.0
2015-Jul-25 21:32S 36°50' E 174°46'0 0.0
2015-Jul-25 20:32S 36°50' E 174°46'0 0.0
2015-Jul-25 19:32S 36°50' E 174°46'0 0.0
2015-Jul-25 18:32S 36°50' E 174°46'3 2.8
2015-Jul-25 17:34S 36°50' E 174°50'10 9.9
2015-Jul-25 16:33S 36°40' E 174°54'1111.4
2015-Jul-25 15:33S 36°29' E 174°58'1413.7
2015-Jul-25 14:33S 36°16' E 174°58'  
2015-Jul-21 17:16S 27°03' E 154°03'1014.0
2015-Jul-21 16:33S 26°59' E 153°52'1414.0
2015-Jul-21 15:33S 26°54' E 153°38'1413.9
2015-Jul-21 14:33S 26°48' E 153°24'1313.2
2015-Jul-21 13:34S 26°42' E 153°11'1211.8
2015-Jul-21 12:34S 26°54' E 153°11'1616.0
2015-Jul-21 11:34S 27°07' E 153°21'1413.6
2015-Jul-21 10:34S 27°19' E 153°12'4 4.4
2015-Jul-21 09:33S 27°23' E 153°10'0 0.0
2015-Jul-21 08:33S 27°23' E 153°10'0 0.0
2015-Jul-21 07:33S 27°23' E 153°10'0 0.0
2015-Jul-21 06:33S 27°23' E 153°10'0 0.1
2015-Jul-21 05:33S 27°23' E 153°10'0 0.0
2015-Jul-21 04:21S 27°23' E 153°10'0 0.0
2015-Jul-21 03:33S 27°23' E 153°10'0 0.0
2015-Jul-21 02:33S 27°23' E 153°10'0 0.0
2015-Jul-21 01:30S 27°23' E 153°10'0 0.0
2015-Jul-21 00:33S 27°23' E 153°10'35 4.3
2015-Jul-20 16:32S 27°34' E 153°47'1616.3
2015-Jul-20 15:33S 27°50' E 153°47'28116.5
2015-Jul-19 22:32S 32°26' E 152°45'1717.6
2015-Jul-19 21:34S 32°41' E 152°35'1716.7
2015-Jul-19 20:34S 32°55' E 152°23'1716.8
2015-Jul-19 19:33S 33°09' E 152°12'8516.9
2015-Jul-19 14:33S 34°17' E 151°11'177 7.3
2015-Jul-18 14:13S 37°08' E 150°16'1014.3
2015-Jul-18 13:33S 37°18' E 150°12'1514.5
2015-Jul-18 12:32S 37°32' E 150°07'1414.4
2015-Jul-18 11:32S 37°42' E 149°55'1716.2
2015-Jul-18 10:29S 37°53' E 149°39'1414.6
2015-Jul-18 09:31S 38°02' E 149°24'1514.4
2015-Jul-18 08:29S 38°12' E 149°10'1414.7
2015-Jul-18 07:33S 38°20' E 148°57'7714.7
2015-Jul-18 02:21S 38°59' E 147°32'1214.8
2015-Jul-18 01:33S 39°03' E 147°18'1514.6
2015-Jul-18 00:33S 39°09' E 147°00'1615.9
2015-Jul-17 23:33S 39°14' E 146°41'1616.2
2015-Jul-17 22:33S 39°17' E 146°20'1717.2
2015-Jul-17 21:33S 39°12' E 145°59'162 5.2
2015-Jul-16 14:33S 38°48' E 142°33'1313.2
2015-Jul-16 13:33S 38°44' E 142°16'1313.5
2015-Jul-16 12:33S 38°41' E 141°60'1313.3
2015-Jul-16 11:33S 38°37' E 141°43'  

Dump ship's entire track history